Terminal Aerodrome Forecast
Issued by NWS

Home | Current Version | Previous Version | Text Only | Print | Product List | Glossary On
Versions: 1 2 3 4 5 6 7 8 9 10 11 12 13 14 15 16 17
150
FTUS41 KBGM 230905 AAA
TAFRME
TAF AMD
KRME 230905Z 2309/2406 28006KT P6SM BKN025 OVC040
     FM231300 27005KT P6SM BKN040
     FM231800 25005KT P6SM BKN040 BKN100
     FM240000 23005KT P6SM BKN035=

USA.gov is the U.S. government's official web portal to all federal, state and local government web resources and services.